Time;durP1;ratioP1;P1;durP2;ratioP2;P2;SDS_P1;SDS_P2;PMS_P1;PMS_P2;Temp;Humidity;BMP_temperature;BMP_pressure;BME280_temperature;BME280_humidity;BME280_pressure;Samples;Min_cycle;Max_cycle;Signal;HPM_P1;HPM_P2
2023/03/27 00:02:27;;;;;;;5.15;1.67;;;3.90;73.40;;;;;;5053651;28;20473;-46
2023/03/27 00:04:54;;;;;;;7.10;1.23;;;4.00;74.40;;;;;;5053677;28;20037;-46
2023/03/27 00:07:24;;;;;;;4.47;1.52;;;4.00;76.20;;;;;;5052351;28;20035;-49
2023/03/27 00:09:52;;;;;;;7.32;1.58;;;3.90;76.30;;;;;;5049359;28;20347;-45
2023/03/27 00:12:23;;;;;;;5.55;1.38;;;3.80;76.00;;;;;;5033609;28;20030;-51
2023/03/27 00:14:52;;;;;;;4.25;0.95;;;3.70;75.60;;;;;;5033916;28;20021;-50
2023/03/27 00:17:21;;;;;;;7.20;1.23;;;3.50;76.10;;;;;;5038469;28;20346;-47
2023/03/27 00:19:52;;;;;;;4.88;1.10;;;3.50;76.70;;;;;;5048415;28;20461;-49
2023/03/27 00:22:20;;;;;;;4.75;1.70;;;3.40;77.10;;;;;;5042696;28;20037;-48
2023/03/27 00:24:49;;;;;;;3.95;1.23;;;3.40;77.30;;;;;;5035354;28;20025;-46
2023/03/27 00:27:16;;;;;;;5.95;1.55;;;3.20;77.50;;;;;;5053346;28;20043;-50
2023/03/27 00:29:42;;;;;;;11.60;1.65;;;3.20;78.00;;;;;;5051040;28;20025;-47
2023/03/27 00:32:10;;;;;;;5.32;1.20;;;3.30;78.30;;;;;;5051035;28;20053;-47
2023/03/27 00:34:37;;;;;;;8.63;2.28;;;3.30;78.20;;;;;;5033192;28;20044;-49
2023/03/27 00:37:04;;;;;;;8.52;2.00;;;3.40;78.20;;;;;;5042841;28;20017;-47
2023/03/27 00:39:30;;;;;;;6.45;1.10;;;3.40;78.10;;;;;;5051544;28;20029;-49
2023/03/27 00:41:57;;;;;;;7.53;1.38;;;3.40;77.90;;;;;;5052977;28;20044;-47
2023/03/27 00:44:33;;;;;;;9.55;1.42;;;3.40;78.80;;;;;;5040697;28;20022;-48
2023/03/27 00:47:03;;;;;;;10.30;1.25;;;3.40;79.50;;;;;;5063153;28;20466;-45
2023/03/27 00:49:33;;;;;;;5.93;1.40;;;3.30;80.70;;;;;;5044342;28;20119;-48
2023/03/27 00:52:12;;;;;;;12.88;2.42;;;3.30;81.40;;;;;;5047129;28;20043;-49
2023/03/27 00:54:39;;;;;;;7.97;2.63;;;3.30;82.90;;;;;;5048073;28;20036;-48
2023/03/27 00:57:11;;;;;;;13.55;2.25;;;3.30;83.80;;;;;;5035115;28;20603;-47
2023/03/27 00:59:41;;;;;;;12.43;2.35;;;3.30;84.40;;;;;;5037678;28;20056;-46
2023/03/27 01:02:08;;;;;;;6.60;2.53;;;3.20;84.40;;;;;;5051524;28;20036;-48
2023/03/27 01:04:36;;;;;;;10.23;2.17;;;3.20;83.60;;;;;;5031464;28;20044;-46
2023/03/27 01:07:05;;;;;;;12.77;2.15;;;3.20;82.60;;;;;;5032958;28;20474;-45
2023/03/27 01:09:33;;;;;;;12.82;2.38;;;3.20;80.60;;;;;;5032380;28;20117;-49
2023/03/27 01:12:39;;;;;;;6.47;0.95;;;3.10;79.70;;;;;;5032101;28;21365;-46
2023/03/27 01:15:20;;;;;;;7.15;1.73;;;3.20;79.20;;;;;;5024465;28;20042;-46
2023/03/27 01:18:17;;;;;;;7.93;2.08;;;3.10;79.10;;;;;;5032074;28;20147;-48
2023/03/27 01:21:19;;;;;;;11.13;1.85;;;3.10;79.50;;;;;;5031780;28;20392;-46
2023/03/27 01:24:13;;;;;;;9.63;2.45;;;3.10;79.40;;;;;;5032336;28;20045;-46
2023/03/27 01:27:00;;;;;;;7.57;1.90;;;3.10;79.00;;;;;;5038959;28;20098;-45
2023/03/27 01:30:06;;;;;;;7.82;1.80;;;3.10;78.60;;;;;;5052153;28;20021;-48
2023/03/27 01:32:50;;;;;;;6.32;2.13;;;3.10;79.10;;;;;;5012128;28;20038;-46
2023/03/27 01:36:19;;;;;;;7.75;1.55;;;3.00;79.00;;;;;;5046485;28;20055;-46
2023/03/27 01:39:23;;;;;;;10.73;1.60;;;3.00;78.60;;;;;;5043428;28;20045;-46
2023/03/27 01:42:17;;;;;;;4.50;1.17;;;3.00;78.60;;;;;;5050146;28;20047;-48
2023/03/27 01:45:16;;;;;;;11.13;1.52;;;3.10;78.60;;;;;;5045395;28;20049;-46
2023/03/27 01:48:09;;;;;;;7.73;1.23;;;3.10;78.10;;;;;;5031773;28;20035;-47
2023/03/27 01:50:50;;;;;;;9.20;1.98;;;3.00;77.80;;;;;;5032163;28;20091;-46
2023/03/27 01:53:35;;;;;;;9.10;1.55;;;3.10;78.10;;;;;;5031912;28;20021;-50
2023/03/27 01:56:25;;;;;;;7.07;1.65;;;3.10;78.20;;;;;;5044789;28;20040;-49
2023/03/27 01:59:20;;;;;;;8.93;1.98;;;3.10;78.70;;;;;;5035021;28;20367;-47
2023/03/27 02:02:09;;;;;;;6.05;1.35;;;3.20;78.90;;;;;;5036659;28;20048;-46
2023/03/27 02:04:59;;;;;;;10.98;2.78;;;3.20;78.70;;;;;;5016313;28;20036;-48
2023/03/27 02:07:32;;;;;;;4.60;1.45;;;3.30;78.10;;;;;;5032351;28;20108;-48
2023/03/27 02:10:08;;;;;;;6.45;1.73;;;3.40;77.20;;;;;;5030571;28;20700;-47
2023/03/27 02:12:44;;;;;;;14.93;2.67;;;3.40;75.90;;;;;;5031309;28;20439;-48
2023/03/27 02:15:15;;;;;;;6.95;1.73;;;3.40;75.40;;;;;;5035953;28;20069;-51
2023/03/27 02:17:51;;;;;;;6.18;1.42;;;3.40;74.20;;;;;;5050826;28;20115;-46
2023/03/27 02:20:20;;;;;;;11.15;2.58;;;3.50;72.80;;;;;;5047002;28;20041;-46
2023/03/27 02:22:52;;;;;;;7.70;1.70;;;3.50;72.40;;;;;;5041537;28;20045;-45
2023/03/27 02:25:29;;;;;;;10.65;2.30;;;3.50;71.30;;;;;;5037136;28;20041;-48
2023/03/27 02:28:19;;;;;;;4.63;1.70;;;3.50;71.20;;;;;;5032122;28;20445;-48
2023/03/27 02:30:57;;;;;;;8.27;2.47;;;3.50;71.60;;;;;;5035236;28;20036;-48
2023/03/27 02:33:59;;;;;;;5.40;1.75;;;3.50;71.90;;;;;;5035282;28;20018;-46
2023/03/27 02:36:53;;;;;;;5.25;1.58;;;3.60;71.70;;;;;;5035470;28;20033;-48
2023/03/27 02:39:37;;;;;;;6.72;1.60;;;3.50;72.10;;;;;;5035603;28;20034;-47
2023/03/27 02:42:24;;;;;;;7.85;2.33;;;3.60;72.80;;;;;;5035042;28;20470;-47
2023/03/27 02:45:38;;;;;;;10.10;1.52;;;3.50;73.30;;;;;;5035006;28;20053;-48
2023/03/27 02:48:16;;;;;;;6.78;1.60;;;3.50;72.60;;;;;;5030823;28;20033;-46
2023/03/27 02:51:25;;;;;;;14.38;2.08;;;3.60;71.50;;;;;;5034473;28;20049;-46
2023/03/27 02:54:07;;;;;;;7.17;3.17;;;3.70;74.30;;;;;;5051845;28;20029;-45
2023/03/27 02:56:50;;;;;;;6.88;1.30;;;3.70;74.50;;;;;;5041937;28;20367;-49
2023/03/27 02:59:26;;;;;;;11.63;1.40;;;3.50;73.50;;;;;;5054650;28;20029;-45
2023/03/27 03:01:53;;;;;;;5.03;1.90;;;3.40;73.90;;;;;;5032961;28;20029;-46
2023/03/27 03:04:24;;;;;;;10.88;1.88;;;3.40;73.90;;;;;;5033844;28;20095;-45
2023/03/27 03:06:52;;;;;;;12.13;2.25;;;3.30;74.50;;;;;;5046467;28;20052;-45
2023/03/27 03:09:20;;;;;;;7.65;1.73;;;3.30;75.40;;;;;;5053680;28;20108;-46
2023/03/27 03:11:52;;;;;;;11.02;1.70;;;3.30;76.30;;;;;;5052765;28;20415;-50
2023/03/27 03:14:33;;;;;;;5.70;1.95;;;3.30;76.60;;;;;;5034399;28;20026;-48
2023/03/27 03:17:01;;;;;;;7.88;2.10;;;3.30;76.60;;;;;;5049098;28;20037;-45
2023/03/27 03:19:26;;;;;;;9.35;2.20;;;3.30;76.80;;;;;;5048735;28;20021;-50
2023/03/27 03:21:52;;;;;;;6.63;1.60;;;3.30;76.60;;;;;;5054111;28;20363;-45
2023/03/27 03:24:20;;;;;;;10.27;1.55;;;3.20;76.00;;;;;;5044840;28;20044;-48
2023/03/27 03:26:52;;;;;;;8.05;1.92;;;3.20;75.90;;;;;;5050763;28;20446;-46
2023/03/27 03:29:28;;;;;;;7.68;1.55;;;3.20;76.50;;;;;;5048644;28;20463;-49
2023/03/27 03:31:56;;;;;;;9.95;2.38;;;3.20;77.10;;;;;;5052006;28;20023;-44
2023/03/27 03:34:23;;;;;;;13.55;3.80;;;3.20;78.00;;;;;;5054156;28;20071;-49
2023/03/27 03:36:54;;;;;;;7.22;2.70;;;3.20;78.10;;;;;;5044024;28;20045;-45
2023/03/27 03:39:23;;;;;;;4.60;1.60;;;3.10;77.60;;;;;;5036148;28;20040;-47
2023/03/27 03:41:51;;;;;;;8.18;1.40;;;3.10;76.70;;;;;;5045573;28;20082;-44
2023/03/27 03:44:18;;;;;;;9.45;2.03;;;3.00;75.90;;;;;;5042588;28;20091;-46
2023/03/27 03:46:46;;;;;;;7.47;2.10;;;3.00;75.80;;;;;;5033839;28;20124;-47
2023/03/27 03:49:14;;;;;;;8.48;1.73;;;3.00;76.30;;;;;;5033662;28;20367;-44
2023/03/27 03:51:41;;;;;;;7.72;2.10;;;3.00;77.20;;;;;;5036532;28;20109;-45
2023/03/27 03:54:08;;;;;;;5.07;1.00;;;3.00;77.90;;;;;;5036347;28;20018;-44
2023/03/27 03:56:40;;;;;;;5.57;1.40;;;3.00;77.90;;;;;;5049518;28;20408;-48
2023/03/27 03:59:09;;;;;;;5.15;1.35;;;3.00;78.00;;;;;;5053993;28;20029;-46
2023/03/27 04:01:37;;;;;;;6.93;1.80;;;3.00;77.50;;;;;;5042791;28;20048;-44
2023/03/27 04:04:05;;;;;;;3.80;1.40;;;3.10;77.00;;;;;;5032570;28;20056;-46
2023/03/27 04:06:36;;;;;;;9.45;1.55;;;3.10;76.60;;;;;;5052937;28;20017;-44
2023/03/27 04:09:07;;;;;;;10.50;1.48;;;3.20;76.80;;;;;;5051107;28;20029;-49
2023/03/27 04:11:35;;;;;;;10.93;2.08;;;3.20;77.20;;;;;;5052061;28;20029;-44
2023/03/27 04:14:02;;;;;;;9.63;1.67;;;3.10;77.10;;;;;;5051931;28;20091;-45
2023/03/27 04:16:30;;;;;;;7.18;1.52;;;3.20;77.30;;;;;;5051023;28;20028;-45
2023/03/27 04:19:04;;;;;;;5.75;1.90;;;3.10;77.40;;;;;;5050037;28;20025;-44
2023/03/27 04:21:33;;;;;;;6.53;1.58;;;3.00;77.30;;;;;;5050557;28;20037;-46
2023/03/27 04:24:01;;;;;;;3.17;1.17;;;3.00;76.90;;;;;;5051696;28;20166;-46
2023/03/27 04:26:28;;;;;;;10.13;2.03;;;3.00;76.90;;;;;;5050007;28;20036;-44
2023/03/27 04:28:55;;;;;;;4.80;1.45;;;3.00;76.60;;;;;;5050512;28;21028;-44
2023/03/27 04:31:22;;;;;;;6.35;1.80;;;3.10;76.40;;;;;;5044239;28;20128;-45
2023/03/27 04:33:52;;;;;;;10.38;1.50;;;3.10;76.60;;;;;;5050776;28;20100;-44
2023/03/27 04:36:19;;;;;;;8.63;1.90;;;3.30;78.10;;;;;;5045543;28;20037;-50
2023/03/27 04:38:49;;;;;;;8.77;1.92;;;3.30;78.70;;;;;;5049090;28;20029;-48
2023/03/27 04:41:17;;;;;;;6.60;2.25;;;3.30;78.90;;;;;;5045515;28;20415;-47
2023/03/27 04:43:44;;;;;;;8.23;2.05;;;3.30;79.90;;;;;;5038576;28;20048;-45
2023/03/27 04:46:11;;;;;;;8.30;2.90;;;3.20;80.40;;;;;;5036402;28;20359;-45
2023/03/27 04:48:42;;;;;;;8.45;1.88;;;3.20;80.40;;;;;;5040314;28;20327;-44
2023/03/27 04:51:12;;;;;;;14.23;1.85;;;3.10;80.50;;;;;;5039027;28;20419;-46
2023/03/27 04:53:37;;;;;;;;;;;3.10;80.70;;;;;;5040596;28;20034;-45
2023/03/27 04:56:07;;;;;;;10.02;1.90;;;3.00;80.60;;;;;;5039179;28;19977;-46
2023/03/27 04:58:35;;;;;;;9.52;1.70;;;3.00;80.30;;;;;;5049266;28;20147;-46
2023/03/27 05:01:06;;;;;;;7.22;1.50;;;3.00;80.20;;;;;;5049925;28;20480;-46
2023/03/27 05:03:33;;;;;;;8.88;2.15;;;3.00;80.40;;;;;;5050875;28;20029;-47
2023/03/27 05:06:02;;;;;;;10.15;1.63;;;3.00;80.20;;;;;;5024261;28;20037;-51
2023/03/27 05:08:30;;;;;;;4.70;1.15;;;3.00;80.20;;;;;;5047867;28;20516;-45
2023/03/27 05:10:57;;;;;;;6.70;1.73;;;3.00;80.10;;;;;;5039912;28;20036;-45
2023/03/27 05:13:24;;;;;;;5.32;1.40;;;3.10;81.10;;;;;;5046480;28;20029;-45
2023/03/27 05:15:51;;;;;;;4.88;1.48;;;3.10;81.80;;;;;;5050911;28;20124;-46
2023/03/27 05:18:17;;;;;;;9.88;1.63;;;3.10;82.30;;;;;;5049815;28;20052;-44
2023/03/27 05:20:48;;;;;;;9.48;1.52;;;3.10;82.80;;;;;;5048045;28;20638;-46
2023/03/27 05:23:15;;;;;;;9.27;2.08;;;3.10;83.80;;;;;;5047450;28;20076;-44
2023/03/27 05:25:44;;;;;;;6.32;1.60;;;3.10;84.80;;;;;;5045106;28;20049;-45
2023/03/27 05:28:10;;;;;;;9.07;1.38;;;3.00;85.50;;;;;;5047869;28;20044;-45
2023/03/27 05:30:36;;;;;;;3.55;1.35;;;3.00;86.10;;;;;;5033514;28;20025;-44
2023/03/27 05:33:02;;;;;;;4.80;1.05;;;3.00;86.80;;;;;;5051349;28;20029;-44
2023/03/27 05:35:30;;;;;;;5.03;0.93;;;3.00;86.80;;;;;;5049107;28;20033;-46
2023/03/27 05:37:57;;;;;;;10.60;1.38;;;3.00;87.10;;;;;;5050038;28;20030;-45
2023/03/27 05:40:30;;;;;;;8.50;1.63;;;3.00;87.20;;;;;;5047832;28;20519;-48
2023/03/27 05:43:04;;;;;;;4.30;1.23;;;3.10;87.20;;;;;;5049719;28;20039;-44
2023/03/27 05:45:31;;;;;;;5.00;1.25;;;3.00;86.60;;;;;;5049217;28;20037;-44
2023/03/27 05:48:03;;;;;;;3.95;0.80;;;3.00;86.80;;;;;;5043409;28;20030;-45
2023/03/27 05:50:35;;;;;;;4.38;1.25;;;3.00;86.90;;;;;;5049374;28;20021;-47
2023/03/27 05:53:08;;;;;;;4.43;0.90;;;3.00;86.60;;;;;;5049824;28;20009;-47
2023/03/27 05:55:39;;;;;;;5.75;1.08;;;2.90;86.60;;;;;;5048298;28;20358;-46
2023/03/27 05:58:08;;;;;;;9.95;2.33;;;2.90;86.90;;;;;;5043917;28;20037;-43
2023/03/27 06:00:37;;;;;;;3.17;1.08;;;2.90;87.10;;;;;;5049635;28;20055;-44
2023/03/27 06:03:03;;;;;;;5.65;1.35;;;2.90;86.90;;;;;;5044775;28;20063;-47
2023/03/27 06:05:31;;;;;;;13.57;2.92;;;2.90;86.80;;;;;;5050685;28;20040;-45
2023/03/27 06:07:59;;;;;;;6.72;1.40;;;2.90;86.40;;;;;;5047063;28;20025;-45
2023/03/27 06:10:29;;;;;;;10.18;2.28;;;3.00;86.00;;;;;;5055198;28;20017;-43
2023/03/27 06:13:04;;;;;;;9.85;1.67;;;3.00;84.30;;;;;;5054398;28;20384;-44
2023/03/27 06:15:32;;;;;;;4.95;1.77;;;3.20;83.30;;;;;;5034344;28;20029;-43
2023/03/27 06:17:59;;;;;;;9.27;1.30;;;3.30;82.50;;;;;;5049167;28;20032;-44
2023/03/27 06:20:26;;;;;;;5.05;1.05;;;3.50;81.70;;;;;;5044369;28;20029;-44
2023/03/27 06:22:58;;;;;;;6.10;1.20;;;3.50;80.80;;;;;;5035619;28;20111;-44
2023/03/27 06:25:26;;;;;;;3.78;0.98;;;3.50;78.30;;;;;;5045445;28;20033;-44
2023/03/27 06:27:54;;;;;;;4.50;0.90;;;3.40;76.70;;;;;;5049525;28;20431;-44
2023/03/27 06:30:24;;;;;;;12.95;1.40;;;3.30;76.70;;;;;;5047086;28;20033;-44
2023/03/27 06:32:59;;;;;;;7.20;1.58;;;3.30;77.00;;;;;;5031779;28;20037;-44
2023/03/27 06:35:29;;;;;;;9.75;2.25;;;3.40;77.00;;;;;;5034034;28;20124;-42
2023/03/27 06:37:55;;;;;;;7.82;1.10;;;3.40;77.00;;;;;;5047543;28;20055;-44
2023/03/27 06:40:24;;;;;;;5.03;1.40;;;3.60;77.10;;;;;;5039526;28;20037;-43
2023/03/27 06:43:09;;;;;;;7.20;3.15;;;3.90;76.20;;;;;;5031558;28;20065;-44
2023/03/27 06:45:55;;;;;;;5.75;1.20;;;4.20;75.00;;;;;;5034081;28;20041;-44
2023/03/27 06:48:25;;;;;;;9.02;1.33;;;4.50;74.10;;;;;;5040886;28;20468;-44
2023/03/27 06:50:54;;;;;;;9.48;1.83;;;4.60;73.40;;;;;;5054484;28;20035;-45
2023/03/27 06:53:22;;;;;;;7.55;1.23;;;4.70;75.40;;;;;;5053623;28;20035;-44
2023/03/27 06:55:50;;;;;;;5.93;1.30;;;4.70;76.00;;;;;;5054530;28;20025;-44
2023/03/27 06:58:20;;;;;;;3.78;1.13;;;4.60;75.60;;;;;;5043437;28;20059;-45
2023/03/27 07:00:48;;;;;;;4.00;1.30;;;4.70;75.70;;;;;;5038042;28;20037;-43
2023/03/27 07:03:18;;;;;;;8.52;1.33;;;4.50;75.90;;;;;;5033059;28;20034;-43
2023/03/27 07:05:44;;;;;;;9.73;1.23;;;4.40;76.30;;;;;;5022058;28;20073;-43
2023/03/27 07:08:14;;;;;;;10.80;1.30;;;4.20;76.70;;;;;;5049924;28;20073;-43
2023/03/27 07:10:41;;;;;;;6.63;1.55;;;4.10;77.30;;;;;;5033961;28;20037;-43
2023/03/27 07:13:07;;;;;;;5.10;1.30;;;4.00;77.80;;;;;;5033085;28;20026;-45
2023/03/27 07:15:35;;;;;;;8.05;1.83;;;4.00;78.50;;;;;;5049020;28;20120;-45
2023/03/27 07:18:08;;;;;;;10.77;3.22;;;4.20;79.00;;;;;;5043837;28;20025;-48
2023/03/27 07:20:49;;;;;;;3.65;0.93;;;4.40;79.10;;;;;;5033394;28;20121;-46
2023/03/27 07:23:16;;;;;;;7.43;1.15;;;4.40;78.80;;;;;;5034238;28;20065;-46
2023/03/27 07:25:43;;;;;;;15.73;2.17;;;4.50;79.00;;;;;;5041841;28;20096;-46
2023/03/27 07:28:17;;;;;;;11.77;2.75;;;4.20;79.80;;;;;;5054144;28;20831;-44
2023/03/27 07:30:45;;;;;;;8.18;1.70;;;4.10;80.80;;;;;;5046998;28;20724;-44
2023/03/27 07:33:11;;;;;;;8.55;1.65;;;4.00;81.90;;;;;;5033755;28;20060;-45
2023/03/27 07:35:46;;;;;;;10.60;3.08;;;3.90;82.50;;;;;;5034487;28;20026;-43
2023/03/27 07:38:15;;;;;;;6.38;1.50;;;3.80;82.50;;;;;;5033791;28;20041;-43
2023/03/27 07:40:44;;;;;;;15.02;2.47;;;3.60;82.70;;;;;;5033568;28;20025;-44
2023/03/27 07:43:12;;;;;;;11.48;2.03;;;3.70;83.00;;;;;;5050785;28;20116;-47
2023/03/27 07:45:37;;;;;;;16.23;5.70;;;3.80;82.90;;;;;;5050775;28;20052;-45
2023/03/27 07:48:07;;;;;;;6.95;2.63;;;4.30;82.50;;;;;;5049316;28;20110;-50
2023/03/27 07:50:36;;;;;;;2.45;0.88;;;4.90;80.10;;;;;;5044377;28;20032;-47
2023/03/27 07:53:03;;;;;;;6.78;2.65;;;4.90;75.30;;;;;;5037010;28;20371;-45
2023/03/27 07:55:31;;;;;;;4.13;1.00;;;4.80;75.00;;;;;;5038880;28;20032;-45
2023/03/27 07:57:58;;;;;;;5.15;0.88;;;4.70;75.30;;;;;;5052792;28;20037;-45
2023/03/27 08:00:30;;;;;;;7.72;0.98;;;4.90;76.20;;;;;;5052224;28;20025;-44
2023/03/27 08:03:09;;;;;;;8.10;1.10;;;5.20;75.30;;;;;;5047136;28;20048;-44
2023/03/27 08:05:37;;;;;;;7.20;1.45;;;5.50;74.80;;;;;;5052666;28;20053;-43
2023/03/27 08:08:05;;;;;;;5.15;1.20;;;5.60;74.50;;;;;;5052014;28;20334;-43
2023/03/27 08:10:37;;;;;;;10.65;1.55;;;5.80;74.60;;;;;;5037250;28;20428;-44
2023/03/27 08:13:05;;;;;;;3.60;0.88;;;5.70;73.60;;;;;;5043291;28;20046;-46
2023/03/27 08:15:32;;;;;;;2.72;0.65;;;5.40;72.70;;;;;;5052091;28;20029;-44
2023/03/27 08:18:01;;;;;;;6.53;1.02;;;5.00;72.80;;;;;;5046708;28;20048;-44
2023/03/27 08:20:29;;;;;;;2.72;0.70;;;4.70;74.40;;;;;;5051875;28;20049;-43
2023/03/27 08:22:56;;;;;;;3.08;0.95;;;4.40;76.70;;;;;;5052999;28;20095;-46
2023/03/27 08:25:28;;;;;;;4.53;1.25;;;4.20;77.70;;;;;;5050927;28;20056;-45
2023/03/27 08:27:55;;;;;;;2.25;0.80;;;4.50;77.80;;;;;;5042650;28;20030;-43
2023/03/27 08:30:22;;;;;;;4.68;0.65;;;5.20;76.80;;;;;;5052910;28;20032;-45
2023/03/27 08:32:50;;;;;;;5.90;0.80;;;5.90;75.80;;;;;;5051479;28;20032;-44
2023/03/27 08:35:19;;;;;;;8.25;1.48;;;6.50;72.90;;;;;;5051655;28;20099;-44
2023/03/27 08:37:45;;;;;;;6.38;1.30;;;7.10;71.60;;;;;;5049833;28;20454;-46
2023/03/27 08:40:24;;;;;;;9.15;1.42;;;7.50;69.80;;;;;;5051420;28;20035;-46
2023/03/27 08:42:55;;;;;;;5.00;1.42;;;7.90;69.30;;;;;;5043322;28;20048;-46
2023/03/27 08:45:47;;;;;;;5.65;2.00;;;8.00;68.00;;;;;;5049218;28;20040;-44
2023/03/27 08:48:20;;;;;;;6.75;1.50;;;7.80;67.90;;;;;;5042954;28;20059;-45
2023/03/27 08:50:58;;;;;;;5.68;0.82;;;7.80;64.50;;;;;;5041751;28;20064;-45
2023/03/27 08:53:54;;;;;;;4.80;0.70;;;7.80;61.90;;;;;;5035209;28;20405;-45
2023/03/27 08:56:24;;;;;;;3.15;0.93;;;7.50;61.70;;;;;;5052087;28;20068;-45
2023/03/27 08:58:53;;;;;;;6.70;1.80;;;7.70;63.80;;;;;;5050872;28;20044;-45
2023/03/27 09:01:40;;;;;;;3.92;1.00;;;8.20;66.20;;;;;;5047963;28;20040;-45
2023/03/27 09:04:09;;;;;;;6.97;1.20;;;8.30;63.20;;;;;;5048158;28;20078;-49
2023/03/27 09:07:02;;;;;;;8.57;1.65;;;8.30;63.40;;;;;;5051846;28;20037;-46
2023/03/27 09:09:45;;;;;;;8.05;1.30;;;8.40;63.70;;;;;;5050363;28;20112;-44
2023/03/27 09:12:48;;;;;;;7.15;1.10;;;8.30;62.90;;;;;;5050066;28;20039;-45
2023/03/27 09:15:56;;;;;;;7.38;1.20;;;7.90;65.20;;;;;;5050101;28;20040;-47
2023/03/27 09:18:53;;;;;;;6.75;2.38;;;7.30;61.60;;;;;;5046739;28;20048;-46
2023/03/27 09:21:35;;;;;;;2.70;0.90;;;6.70;62.70;;;;;;5049976;28;20052;-46
2023/03/27 09:24:10;;;;;;;8.57;1.40;;;7.30;64.70;;;;;;5033948;28;20053;-46
2023/03/27 09:26:36;;;;;;;5.32;1.02;;;7.70;62.00;;;;;;5031089;28;20140;-46
2023/03/27 09:29:24;;;;;;;5.00;1.02;;;8.20;60.00;;;;;;5044285;28;20029;-46
2023/03/27 09:32:08;;;;;;;4.88;0.93;;;8.50;58.50;;;;;;5050137;28;20587;-47
2023/03/27 09:34:36;;;;;;;7.57;2.33;;;8.50;58.60;;;;;;5049783;28;20045;-45
2023/03/27 09:37:04;;;;;;;7.32;1.17;;;9.00;58.00;;;;;;5049287;28;20029;-45
2023/03/27 09:39:32;;;;;;;3.97;1.05;;;8.80;59.80;;;;;;5052272;28;20119;-46
2023/03/27 09:42:23;;;;;;;4.43;1.30;;;7.90;63.30;;;;;;5037751;28;20029;-48
2023/03/27 09:44:56;;;;;;;5.50;2.05;;;7.20;65.60;;;;;;5054901;28;20033;-45
2023/03/27 09:47:33;;;;;;;4.20;1.02;;;7.70;65.60;;;;;;5052627;28;20059;-46
2023/03/27 09:50:28;;;;;;;9.20;1.10;;;8.10;63.60;;;;;;5035614;28;20072;-48
2023/03/27 09:53:07;;;;;;;5.10;0.95;;;8.40;63.60;;;;;;5035455;28;20116;-46
2023/03/27 09:55:33;;;;;;;3.93;1.07;;;8.60;65.10;;;;;;5035109;28;20037;-46
2023/03/27 09:58:28;;;;;;;8.38;1.05;;;8.50;62.20;;;;;;5040828;28;20040;-47
2023/03/27 10:01:18;;;;;;;7.50;1.25;;;8.20;64.90;;;;;;5053882;28;20035;-52
2023/03/27 10:04:02;;;;;;;;;;;7.90;66.60;;;;;;5056179;28;20020;-47
2023/03/27 10:06:36;;;;;;;4.57;0.98;;;8.00;67.50;;;;;;5047943;28;19913;-49
2023/03/27 10:09:33;;;;;;;5.85;1.10;;;7.70;67.80;;;;;;5044725;28;20025;-46
2023/03/27 10:12:17;;;;;;;9.60;1.20;;;7.60;69.90;;;;;;5034553;28;20037;-49
2023/03/27 10:14:55;;;;;;;7.07;0.77;;;8.00;64.70;;;;;;5050836;28;20432;-49
2023/03/27 10:17:30;;;;;;;5.15;1.08;;;8.40;63.10;;;;;;5050654;28;20491;-45
2023/03/27 10:20:19;;;;;;;2.33;0.70;;;8.10;62.30;;;;;;5052990;28;20044;-52
2023/03/27 10:23:06;;;;;;;5.15;1.75;;;8.10;64.90;;;;;;5016661;28;20026;-46
2023/03/27 10:25:37;;;;;;;6.85;1.25;;;8.30;62.20;;;;;;5035020;28;20140;-50
2023/03/27 10:28:27;;;;;;;6.85;1.23;;;8.20;63.30;;;;;;5051907;28;20025;-46
2023/03/27 10:31:05;;;;;;;11.75;1.90;;;7.90;63.40;;;;;;5032692;28;20103;-48
2023/03/27 10:33:40;;;;;;;6.60;1.15;;;7.10;68.20;;;;;;5050746;28;20044;-48
2023/03/27 10:36:08;;;;;;;6.65;1.38;;;6.40;71.80;;;;;;5034267;28;20041;-49
2023/03/27 10:38:36;;;;;;;7.03;1.42;;;6.30;73.60;;;;;;5044903;28;20043;-49
2023/03/27 10:41:16;;;;;;;5.80;1.33;;;6.20;73.10;;;;;;5034452;28;20033;-51
2023/03/27 10:43:46;;;;;;;4.55;1.15;;;6.20;74.40;;;;;;5036456;28;20044;-46
2023/03/27 10:46:21;;;;;;;2.67;0.63;;;6.00;71.40;;;;;;5052594;28;20059;-47
2023/03/27 10:49:09;;;;;;;2.13;0.68;;;6.40;70.50;;;;;;5035525;28;20120;-49
2023/03/27 10:51:41;;;;;;;4.95;1.15;;;6.80;67.50;;;;;;5051678;28;20032;-47
2023/03/27 10:54:33;;;;;;;4.80;0.52;;;7.30;67.90;;;;;;5054489;28;20331;-50
2023/03/27 10:57:20;;;;;;;6.28;2.13;;;7.70;65.60;;;;;;5050564;28;20040;-49
2023/03/27 11:00:18;;;;;;;6.78;1.05;;;8.00;65.10;;;;;;5046934;28;20068;-49
2023/03/27 11:03:10;;;;;;;6.70;1.30;;;8.20;62.50;;;;;;5048379;28;20040;-46
2023/03/27 11:05:53;;;;;;;7.05;1.35;;;8.40;63.10;;;;;;5048159;28;20033;-48
2023/03/27 11:08:42;;;;;;;6.28;1.23;;;8.10;62.30;;;;;;5049507;28;20048;-48
2023/03/27 11:11:32;;;;;;;7.40;2.10;;;7.60;63.50;;;;;;5052704;28;20070;-48
2023/03/27 11:14:04;;;;;;;6.75;1.35;;;7.80;64.60;;;;;;5051696;28;20112;-47
2023/03/27 11:16:43;;;;;;;6.35;1.45;;;7.50;62.30;;;;;;5035955;28;20036;-52
2023/03/27 11:19:28;;;;;;;9.20;1.42;;;7.30;62.20;;;;;;5053467;28;20028;-47
2023/03/27 11:22:00;;;;;;;9.93;1.63;;;7.40;61.60;;;;;;5048789;28;20041;-51
2023/03/27 11:24:57;;;;;;;4.55;1.20;;;7.20;63.00;;;;;;5036049;28;20076;-48
2023/03/27 11:28:05;;;;;;;6.45;1.90;;;7.70;64.80;;;;;;5051083;28;20116;-50
2023/03/27 11:30:48;;;;;;;9.27;2.70;;;8.40;61.40;;;;;;5047504;28;20520;-47
2023/03/27 11:33:51;;;;;;;6.72;1.73;;;8.80;59.60;;;;;;5049468;28;20060;-47
2023/03/27 11:36:45;;;;;;;8.18;1.52;;;8.30;60.20;;;;;;5033668;28;20331;-51
2023/03/27 11:39:35;;;;;;;7.45;1.85;;;7.80;61.00;;;;;;5046713;28;20377;-47
2023/03/27 11:42:24;;;;;;;7.85;2.55;;;8.00;62.00;;;;;;5053742;28;20035;-48
2023/03/27 11:44:53;;;;;;;7.50;1.40;;;7.90;60.60;;;;;;5052241;28;20037;-49
2023/03/27 11:47:51;;;;;;;9.60;1.27;;;8.10;59.20;;;;;;5051701;28;20036;-48
2023/03/27 11:50:28;;;;;;;9.52;1.60;;;8.20;57.50;;;;;;5053614;28;20025;-48
2023/03/27 11:53:21;;;;;;;4.85;1.25;;;7.70;57.50;;;;;;5049425;28;20017;-51
2023/03/27 11:56:06;;;;;;;8.65;2.75;;;7.30;59.60;;;;;;5033704;28;20108;-51
2023/03/27 11:59:09;;;;;;;14.15;1.90;;;7.30;67.40;;;;;;5033979;28;20025;-53
2023/03/27 12:01:57;;;;;;;10.20;1.77;;;7.40;68.20;;;;;;5044152;28;20037;-47
2023/03/27 12:04:41;;;;;;;7.15;1.33;;;7.20;67.60;;;;;;5050305;28;20057;-49
2023/03/27 12:07:24;;;;;;;3.90;1.20;;;6.60;73.10;;;;;;5049448;28;20025;-47
2023/03/27 12:10:28;;;;;;;7.53;1.30;;;5.50;76.40;;;;;;5036642;28;20454;-50
2023/03/27 12:13:21;;;;;;;3.33;1.05;;;5.00;77.70;;;;;;5034133;28;20045;-53
2023/03/27 12:16:04;;;;;;;11.80;2.83;;;4.90;79.50;;;;;;5046140;28;20725;-46
2023/03/27 12:19:01;;;;;;;8.90;1.83;;;4.80;80.80;;;;;;5047904;28;20072;-47
2023/03/27 12:21:47;;;;;;;8.25;2.17;;;5.20;81.00;;;;;;5031823;28;20029;-47
2023/03/27 12:24:40;;;;;;;3.58;1.40;;;5.80;80.80;;;;;;5042712;28;20087;-46
2023/03/27 12:27:43;;;;;;;10.68;2.15;;;6.40;80.20;;;;;;5052176;28;20033;-45
2023/03/27 12:30:34;;;;;;;8.30;1.58;;;6.50;76.90;;;;;;5048659;28;20036;-48
2023/03/27 12:33:27;;;;;;;6.97;1.45;;;6.70;74.20;;;;;;5043451;28;20028;-47
2023/03/27 12:35:58;;;;;;;9.00;1.63;;;6.90;72.20;;;;;;5045255;28;20037;-48
2023/03/27 12:38:38;;;;;;;8.38;1.33;;;7.40;72.90;;;;;;5048336;28;20062;-47
2023/03/27 12:41:18;;;;;;;9.88;1.80;;;6.90;66.60;;;;;;5048804;28;20039;-51
2023/03/27 12:43:53;;;;;;;5.53;1.17;;;6.40;69.00;;;;;;5043351;28;20094;-50
2023/03/27 12:46:33;;;;;;;5.88;1.20;;;6.30;68.00;;;;;;5040388;28;20036;-51
2023/03/27 12:49:10;;;;;;;5.63;1.30;;;6.60;67.80;;;;;;5051808;28;20021;-47
2023/03/27 12:52:01;;;;;;;6.95;1.55;;;7.00;66.60;;;;;;5050658;28;20025;-50
2023/03/27 12:54:31;;;;;;;5.57;1.17;;;7.30;65.50;;;;;;5049577;28;20029;-47
2023/03/27 12:57:19;;;;;;;7.55;2.10;;;7.00;63.30;;;;;;5052064;28;20052;-47
2023/03/27 12:59:57;;;;;;;9.88;2.22;;;7.00;65.50;;;;;;5050176;28;20032;-50
2023/03/27 13:03:03;;;;;;;11.85;1.25;;;6.90;66.80;;;;;;5050284;28;20079;-48
2023/03/27 13:06:07;;;;;;;9.60;1.50;;;6.80;67.10;;;;;;5041596;28;20103;-49
2023/03/27 13:09:00;;;;;;;8.32;2.13;;;6.70;66.20;;;;;;5051925;28;20021;-53
2023/03/27 13:11:48;;;;;;;8.43;1.67;;;6.60;68.80;;;;;;5046830;28;20053;-50
2023/03/27 13:14:47;;;;;;;11.60;3.30;;;6.70;70.00;;;;;;5030962;28;20048;-50
2023/03/27 13:17:32;;;;;;;19.05;7.55;;;7.00;68.90;;;;;;5048496;28;20124;-51
2023/03/27 13:20:30;;;;;;;15.98;4.53;;;6.80;70.20;;;;;;5051900;28;20017;-50
2023/03/27 13:23:21;;;;;;;7.55;2.30;;;6.70;69.10;;;;;;5049502;28;20459;-50
2023/03/27 13:26:28;;;;;;;10.52;3.25;;;7.20;68.30;;;;;;5035722;28;20029;-51
2023/03/27 13:28:55;;;;;;;11.10;2.90;;;7.90;66.70;;;;;;5032167;28;20105;-46
2023/03/27 13:31:43;;;;;;;8.85;2.38;;;8.00;63.30;;;;;;5049094;28;20029;-48
2023/03/27 13:34:15;;;;;;;12.35;2.38;;;7.50;63.90;;;;;;5052200;28;20024;-52
2023/03/27 13:36:47;;;;;;;18.45;2.90;;;7.40;69.30;;;;;;5049813;28;20040;-51
2023/03/27 13:40:06;;;;;;;10.00;2.60;;;7.00;72.20;;;;;;5052239;28;20025;-51
2023/03/27 13:42:45;;;;;;;9.40;1.90;;;7.10;71.80;;;;;;5051191;28;20033;-47
2023/03/27 13:46:00;;;;;;;6.67;1.60;;;7.20;70.50;;;;;;5035593;28;20839;-48
2023/03/27 13:48:42;;;;;;;10.43;2.08;;;7.20;69.70;;;;;;4952009;28;20457;-51